createdAt,value
2024-04-19T00:03:33.586Z,93980.56
2024-04-19T00:08:38.586Z,93978.28
2024-04-19T00:13:43.482Z,93967.66
2024-04-19T00:18:48.489Z,93968.31
2024-04-19T00:23:53.442Z,93976.66
2024-04-19T00:28:58.343Z,93970.03
2024-04-19T00:34:03.419Z,93965.59
2024-04-19T00:39:08.412Z,93961.13
2024-04-19T00:44:13.382Z,93958.25
2024-04-19T00:49:18.298Z,93948.78
2024-04-19T00:54:23.583Z,93952.00
2024-04-19T00:59:28.527Z,93949.03
2024-04-19T01:04:33.607Z,93948.44
2024-04-19T01:09:38.552Z,93945.72
2024-04-19T01:14:43.499Z,93944.59
2024-04-19T01:19:48.436Z,93950.72
2024-04-19T01:24:55.710Z,93941.31
2024-04-19T01:30:00.826Z,93941.63
2024-04-19T01:35:06.330Z,93934.50
2024-04-19T01:40:11.773Z,93941.25
2024-04-19T01:45:16.657Z,93942.22
2024-04-19T01:50:21.496Z,93947.31
2024-04-19T01:55:26.918Z,93940.38
2024-04-19T02:00:32.096Z,93930.25
2024-04-19T02:05:37.506Z,93922.53
2024-04-19T02:10:42.371Z,93916.28
2024-04-19T02:15:47.271Z,93903.63
2024-04-19T02:20:52.146Z,93896.88
2024-04-19T02:25:57.486Z,93898.97
2024-04-19T02:31:05.314Z,93897.66
2024-04-19T02:36:11.059Z,93874.44
2024-04-19T02:41:16.042Z,93875.53
2024-04-19T02:46:21.374Z,93865.78
2024-04-19T02:51:26.353Z,93856.16
2024-04-19T02:56:31.281Z,93844.28
2024-04-19T03:01:37.430Z,93859.47
2024-04-19T03:06:42.262Z,93844.28
2024-04-19T03:11:47.086Z,93842.06
2024-04-19T03:16:55.554Z,93835.63
2024-04-19T03:22:00.374Z,93837.13
2024-04-19T03:27:08.366Z,93824.16
2024-04-19T03:32:13.214Z,93823.94
2024-04-19T03:37:18.116Z,93820.78
2024-04-19T03:42:22.921Z,93821.34
2024-04-19T03:47:27.786Z,93818.81
2024-04-19T03:52:32.651Z,93820.44
2024-04-19T03:57:37.477Z,93816.59
2024-04-19T04:02:42.401Z,93808.25
2024-04-19T04:07:47.313Z,93804.09
2024-04-19T04:12:56.258Z,93800.91
2024-04-19T04:18:03.502Z,93805.75
2024-04-19T04:23:08.598Z,93802.28
2024-04-19T04:28:13.394Z,93808.81
2024-04-19T04:33:18.278Z,93804.84
2024-04-19T04:38:23.118Z,93801.66
2024-04-19T04:43:27.986Z,93792.34
2024-04-19T04:48:32.834Z,93797.16
2024-04-19T04:53:37.870Z,93794.75
2024-04-19T04:58:42.736Z,93798.75
2024-04-19T05:03:51.374Z,93788.50
2024-04-19T05:08:56.310Z,93791.69
2024-04-19T05:14:01.161Z,93784.94
2024-04-19T05:19:06.005Z,93783.72
2024-04-19T05:24:11.027Z,93788.81
2024-04-19T05:29:16.475Z,93782.06
2024-04-19T05:34:21.359Z,93773.75
2024-04-19T05:39:26.199Z,93768.97
2024-04-19T05:44:32.710Z,93774.09
2024-04-19T05:49:37.723Z,93769.59
2024-04-19T05:54:42.623Z,93770.25
2024-04-19T05:59:47.452Z,93774.78
2024-04-19T06:04:52.256Z,93769.31
2024-04-19T06:09:57.151Z,93760.50
2024-04-19T06:15:02.009Z,93762.59
2024-04-19T06:20:06.942Z,93749.44
2024-04-19T06:25:13.064Z,93754.56
2024-04-19T06:30:17.967Z,93742.38
2024-04-19T06:35:23.368Z,93734.03
2024-04-19T06:40:28.429Z,93738.84
2024-04-19T06:45:38.288Z,93738.50
2024-04-19T06:50:43.170Z,93732.88
2024-04-19T06:55:49.307Z,93720.81
2024-04-19T07:01:08.979Z,93722.72
2024-04-19T07:06:24.207Z,93717.22
2024-04-19T07:11:36.018Z,93714.00
2024-04-19T07:16:43.303Z,93715.88
2024-04-19T07:21:48.347Z,93702.53
2024-04-19T07:26:53.488Z,93695.59
2024-04-19T07:31:58.286Z,93682.66
2024-04-19T07:37:03.124Z,93682.59
2024-04-19T07:42:08.063Z,93669.34
2024-04-19T07:47:13.050Z,93655.50
2024-04-19T07:52:17.840Z,93651.94
2024-04-19T07:57:22.774Z,93640.88
2024-04-19T08:02:27.695Z,93637.69
2024-04-19T08:07:39.789Z,93639.56
2024-04-19T08:12:45.503Z,93632.81
2024-04-19T08:17:52.169Z,93614.50
2024-04-19T08:22:57.141Z,93607.91
2024-04-19T08:28:02.052Z,93592.03
2024-04-19T08:33:07.180Z,93591.75
2024-04-19T08:38:12.146Z,93586.03
2024-04-19T08:43:18.981Z,93588.22
2024-04-19T08:48:24.011Z,93579.91
2024-04-19T08:53:29.984Z,93573.88
2024-04-19T08:58:34.822Z,93573.16
2024-04-19T09:03:39.944Z,93578.94
2024-04-19T09:08:45.613Z,93564.06
2024-04-19T09:13:50.462Z,93556.28
2024-04-19T09:18:55.281Z,93546.13
2024-04-19T09:24:00.210Z,93544.97
2024-04-19T09:29:06.242Z,93524.94
2024-04-19T09:34:11.631Z,93512.13
2024-04-19T09:39:17.885Z,93508.38
2024-04-19T09:44:27.456Z,93494.16
2024-04-19T09:49:35.037Z,93497.53
2024-04-19T09:54:44.166Z,93488.84
2024-04-19T09:59:49.677Z,93477.97
2024-04-19T10:04:54.740Z,93467.28
2024-04-19T10:10:00.306Z,93461.00
2024-04-19T10:15:05.415Z,93436.75
2024-04-19T10:20:12.799Z,93448.16
2024-04-19T10:25:17.586Z,93437.56
2024-04-19T10:30:28.138Z,93427.50
2024-04-19T10:35:46.574Z,93426.41
2024-04-19T10:40:51.367Z,93405.53
2024-04-19T10:45:56.295Z,93390.09
2024-04-19T10:51:05.045Z,93386.09
2024-04-19T10:56:10.486Z,93373.56
2024-04-19T11:01:15.339Z,93362.19
2024-04-19T11:06:21.636Z,93366.47
2024-04-19T11:11:26.795Z,93348.72
2024-04-19T11:16:31.711Z,93346.41
2024-04-19T11:21:36.953Z,93349.16
2024-04-19T11:26:42.154Z,93327.75
2024-04-19T11:31:46.964Z,93334.16
2024-04-19T11:36:51.814Z,93315.16
2024-04-19T11:41:56.813Z,93314.78
2024-04-19T11:47:08.231Z,93291.22
2024-04-19T11:52:13.091Z,93294.84
2024-04-19T11:57:17.931Z,93302.50
2024-04-19T12:02:22.990Z,93288.38
2024-04-19T12:07:28.100Z,93283.75
2024-04-19T12:13:09.858Z,93274.81
2024-04-19T12:18:00.238Z,93285.09
2024-04-19T12:23:07.873Z,93268.31
2024-04-19T12:28:13.703Z,93265.56
2024-04-19T12:33:19.053Z,93257.69
2024-04-19T12:38:26.040Z,93263.81
2024-04-19T12:43:31.030Z,93257.06
2024-04-19T12:48:35.959Z,93254.50
2024-04-19T12:53:40.879Z,93250.88
2024-04-19T12:58:46.249Z,93255.81
2024-04-19T13:03:52.118Z,93237.63
2024-04-19T13:08:57.240Z,93235.50
2024-04-19T13:14:02.031Z,93232.59
2024-04-19T13:19:07.162Z,93229.13
2024-04-19T13:24:12.037Z,93211.84
2024-04-19T13:29:17.005Z,93213.16
2024-04-19T13:34:21.852Z,93221.00
2024-04-19T13:39:26.951Z,93210.88
2024-04-19T13:44:32.104Z,93218.31
2024-04-19T13:49:36.965Z,93215.91
2024-04-19T13:54:41.891Z,93216.38
2024-04-19T13:59:46.737Z,93205.72
2024-04-19T14:04:51.566Z,93194.53
2024-04-19T14:09:56.482Z,93197.13
2024-04-19T14:15:01.523Z,93201.13
2024-04-19T14:20:06.546Z,93186.22
2024-04-19T14:25:13.866Z,93179.03
2024-04-19T14:30:18.820Z,93177.00
2024-04-19T14:35:24.940Z,93155.91
2024-04-19T14:40:31.871Z,93159.44
2024-04-19T14:45:38.223Z,93157.50
2024-04-19T14:50:43.087Z,93142.78
2024-04-19T14:55:48.118Z,93134.19
2024-04-19T15:00:53.282Z,93129.91
2024-04-19T15:06:55.082Z,93130.53
2024-04-19T15:12:00.729Z,93123.28
2024-04-19T15:17:06.333Z,93123.28
2024-04-19T15:22:11.197Z,93118.91
2024-04-19T15:27:15.997Z,93114.41
2024-04-19T15:32:20.857Z,93105.91
2024-04-19T15:37:25.673Z,93101.72
2024-04-19T15:42:30.654Z,93090.00
2024-04-19T15:47:35.783Z,93089.53
2024-04-19T15:52:40.638Z,93082.78
2024-04-19T15:57:45.618Z,93081.06
2024-04-19T16:02:50.483Z,93080.00
2024-04-19T16:07:55.797Z,93066.50
2024-04-19T16:13:00.874Z,93066.69
2024-04-19T16:18:06.422Z,93062.97
2024-04-19T16:23:11.242Z,93062.97
2024-04-19T16:28:16.033Z,93054.94
2024-04-19T16:33:20.940Z,93051.78
2024-04-19T16:38:25.966Z,93053.03
2024-04-19T16:43:30.770Z,93043.38
2024-04-19T16:48:35.615Z,93041.81
2024-04-19T16:53:40.516Z,93037.38
2024-04-19T16:58:45.431Z,93036.84
2024-04-19T17:03:50.958Z,93056.06
2024-04-19T17:08:56.057Z,93056.81
2024-04-19T17:14:00.850Z,93055.22
2024-04-19T17:19:05.747Z,93061.19
2024-04-19T17:24:10.797Z,93062.81
2024-04-19T17:29:15.588Z,93051.53
2024-04-19T17:34:21.091Z,93055.97
2024-04-19T17:39:26.003Z,93073.47
2024-04-19T17:44:34.740Z,93069.34
2024-04-19T17:49:40.297Z,93057.47
2024-04-19T17:54:45.619Z,93047.19
2024-04-19T17:59:50.400Z,93050.78
2024-04-19T18:04:55.272Z,93052.91
2024-04-19T18:10:00.249Z,93065.81
2024-04-19T18:15:08.874Z,93075.47
2024-04-19T18:20:13.880Z,93076.19
2024-04-19T18:25:18.812Z,93080.69
2024-04-19T18:30:23.654Z,93070.59
2024-04-19T18:35:30.616Z,93075.75
2024-04-19T18:40:36.682Z,93069.31
2024-04-19T18:45:42.874Z,93078.84
2024-04-19T18:50:47.815Z,93070.47
2024-04-19T18:55:52.622Z,93071.59
2024-04-19T19:00:57.485Z,93084.97
2024-04-19T19:06:02.338Z,93078.22
2024-04-19T19:11:15.215Z,93097.59
2024-04-19T19:16:20.108Z,93122.56
2024-04-19T19:21:26.086Z,93147.41
2024-04-19T19:26:31.964Z,93152.44
2024-04-19T19:31:37.397Z,93196.06
2024-04-19T19:36:43.229Z,93206.25
2024-04-19T19:41:48.133Z,93228.75
2024-04-19T19:46:53.106Z,93228.56
2024-04-19T19:51:58.019Z,93238.25
2024-04-19T19:57:03.011Z,93222.75
2024-04-19T20:02:24.198Z,93225.94
2024-04-19T20:07:29.237Z,93224.91
2024-04-19T20:12:35.366Z,93225.94
2024-04-19T20:17:40.330Z,93218.19
2024-04-19T20:22:45.199Z,93228.53
2024-04-19T20:27:50.451Z,93239.53
2024-04-19T20:32:55.393Z,93250.88
2024-04-19T20:38:00.241Z,93249.91
2024-04-19T20:43:15.337Z,93245.16
2024-04-19T20:48:25.271Z,93244.88
2024-04-19T20:53:30.240Z,93245.16
2024-04-19T20:58:35.052Z,93244.31
2024-04-19T21:03:39.972Z,93239.66
2024-04-19T21:08:44.957Z,93247.72
2024-04-19T21:13:49.757Z,93254.72
2024-04-19T21:18:54.628Z,93267.16
2024-04-19T21:23:59.479Z,93263.16
2024-04-19T21:29:04.373Z,93268.28
2024-04-19T21:34:09.323Z,93279.31
2024-04-19T21:39:14.822Z,93279.16
2024-04-19T21:44:19.660Z,93270.81
2024-04-19T21:49:24.442Z,93281.06
2024-04-19T21:54:29.282Z,93281.41
2024-04-19T21:59:34.204Z,93285.75
2024-04-19T22:04:39.134Z,93287.50
2024-04-19T22:09:44.026Z,93287.81
2024-04-19T22:14:48.899Z,93290.03
2024-04-19T22:19:55.981Z,93299.31
2024-04-19T22:25:00.861Z,93282.66
2024-04-19T22:30:05.725Z,93296.09
2024-04-19T22:35:10.771Z,93299.63
2024-04-19T22:40:15.591Z,93299.97
2024-04-19T22:45:20.424Z,93298.66
2024-04-19T22:50:25.212Z,93297.03
2024-04-19T22:55:30.001Z,93301.19
2024-04-19T23:00:35.664Z,93311.44
2024-04-19T23:05:40.534Z,93316.56
2024-04-19T23:10:45.317Z,93304.38
2024-04-19T23:15:50.187Z,93315.44
2024-04-19T23:21:05.605Z,93316.88
2024-04-19T23:26:12.467Z,93309.78
2024-04-19T23:31:18.852Z,93305.94
2024-04-19T23:36:23.626Z,93301.13
2024-04-19T23:41:28.421Z,93305.34
2024-04-19T23:46:33.254Z,93295.88
2024-04-19T23:51:38.099Z,93304.66
2024-04-19T23:56:43.000Z,93303.69
